Weather at Bois Blanc Airport

Public forecast

Using degrees Fahrenheit for public forecast. Weather courtesy of forecast.io.

Closest aviation weather report (METAR) to Bois Blanc Airport

Closest report is Cheboygan County Airport, 6.8 nm (12.6 km) S. Retrieved 2022/01/16 19:15 UTC (0 seconds ago):

KSLH 161915Z AUTO 16006KT 10SM BKN025 M05/M10 A2981 RMK AO2

Closest aviation forecast (TAF) to Bois Blanc Airport

Closest forecast is Pellston Regional Airport of Emmet County Airport, 17.0 nm (31.5 km) SW. Retrieved 2022/01/16 18:42 UTC (32 minutes ago):

TAF KPLN 161739Z 1618/1718 18006KT P6SM SCT025 BKN250 TEMPO 1618/1620 BKN025 FM162200 17005KT P6SM VCSH OVC090 FM170300 VRB04KT 4SM BR VCSH OVC045 FM170600 00000KT 5SM BR BKN035 FM170900 VRB03KT P6SM BKN060 FM171000 34008KT P6SM SCT015 BKN060 FM171400 34012G20KT P6SM SCT015 BKN060